createdAt,value
2023-12-02T00:01:01.833Z,100.00
2023-12-02T00:04:04.750Z,100.00
2023-12-02T00:07:07.396Z,100.00
2023-12-02T00:10:12.323Z,100.00
2023-12-02T00:13:15.093Z,100.00
2023-12-02T00:16:17.789Z,100.00
2023-12-02T00:19:20.618Z,100.00
2023-12-02T00:22:23.348Z,100.00
2023-12-02T00:25:26.260Z,100.00
2023-12-02T00:28:29.040Z,100.00
2023-12-02T00:31:31.706Z,100.00
2023-12-02T00:34:34.525Z,100.00
2023-12-02T00:37:37.360Z,100.00
2023-12-02T00:40:40.150Z,100.00
2023-12-02T00:43:42.849Z,100.00
2023-12-02T00:46:45.650Z,100.00
2023-12-02T00:49:48.528Z,100.00
2023-12-02T00:52:51.275Z,100.00
2023-12-02T00:55:53.942Z,100.00
2023-12-02T00:58:56.583Z,100.00
2023-12-02T01:01:59.358Z,100.00
2023-12-02T01:05:03.237Z,100.00
2023-12-02T01:08:06.016Z,100.00
2023-12-02T01:11:08.977Z,100.00
2023-12-02T01:14:11.780Z,100.00
2023-12-02T01:17:14.885Z,100.00
2023-12-02T01:20:17.770Z,100.00
2023-12-02T01:23:20.479Z,100.00
2023-12-02T01:26:23.234Z,100.00
2023-12-02T01:29:25.934Z,100.00
2023-12-02T01:32:28.790Z,100.00
2023-12-02T01:35:31.556Z,100.00
2023-12-02T01:38:34.178Z,100.00
2023-12-02T01:41:36.987Z,100.00
2023-12-02T01:44:39.787Z,100.00
2023-12-02T01:47:43.445Z,100.00
2023-12-02T01:50:46.210Z,100.00
2023-12-02T01:53:48.926Z,100.00
2023-12-02T01:56:51.675Z,100.00
2023-12-02T02:00:07.252Z,100.00
2023-12-02T02:03:14.472Z,100.00
2023-12-02T02:06:17.221Z,100.00
2023-12-02T02:09:20.100Z,100.00
2023-12-02T02:12:22.952Z,100.00
2023-12-02T02:15:25.651Z,100.00
2023-12-02T02:18:33.759Z,100.00
2023-12-02T02:21:37.212Z,100.00
2023-12-02T02:24:40.313Z,100.00
2023-12-02T02:27:43.010Z,100.00
2023-12-02T02:30:45.729Z,100.00
2023-12-02T02:33:48.493Z,100.00
2023-12-02T02:36:51.233Z,100.00
2023-12-02T02:39:53.896Z,100.00
2023-12-02T02:42:56.614Z,100.00
2023-12-02T02:45:59.249Z,100.00
2023-12-02T02:49:02.055Z,100.00
2023-12-02T02:52:04.942Z,100.00
2023-12-02T02:55:07.840Z,100.00
2023-12-02T02:58:10.583Z,100.00
2023-12-02T03:01:13.533Z,100.00
2023-12-02T03:04:16.416Z,100.00
2023-12-02T03:07:19.185Z,100.00
2023-12-02T03:10:22.956Z,100.00
2023-12-02T03:13:25.670Z,100.00
2023-12-02T03:16:28.351Z,100.00
2023-12-02T03:19:31.111Z,100.00
2023-12-02T03:22:33.824Z,100.00
2023-12-02T03:25:36.562Z,100.00
2023-12-02T03:28:39.197Z,100.00
2023-12-02T03:31:42.044Z,100.00
2023-12-02T03:34:44.947Z,100.00
2023-12-02T03:37:47.749Z,100.00
2023-12-02T03:40:50.427Z,100.00
2023-12-02T03:43:58.549Z,100.00
2023-12-02T03:47:02.036Z,100.00
2023-12-02T03:50:06.352Z,100.00
2023-12-02T03:53:09.122Z,100.00
2023-12-02T03:56:12.121Z,100.00
2023-12-02T03:59:14.765Z,100.00
2023-12-02T04:02:17.448Z,100.00
2023-12-02T04:05:21.152Z,100.00
2023-12-02T04:08:24.152Z,100.00
2023-12-02T04:11:27.720Z,100.00
2023-12-02T04:14:31.680Z,100.00
2023-12-02T04:17:34.707Z,100.00
2023-12-02T04:20:37.898Z,100.00
2023-12-02T04:23:41.121Z,100.00
2023-12-02T04:26:44.618Z,100.00
2023-12-02T04:29:47.641Z,100.00
2023-12-02T04:32:51.292Z,100.00
2023-12-02T04:35:55.617Z,100.00
2023-12-02T04:38:59.436Z,100.00
2023-12-02T04:42:02.233Z,100.00
2023-12-02T04:45:07.100Z,100.00
2023-12-02T04:48:10.495Z,100.00
2023-12-02T04:51:14.400Z,100.00
2023-12-02T04:54:17.210Z,100.00
2023-12-02T04:57:21.176Z,100.00
2023-12-02T05:00:25.133Z,100.00
2023-12-02T05:03:31.514Z,100.00
2023-12-02T05:06:34.699Z,100.00
2023-12-02T05:09:39.327Z,100.00
2023-12-02T05:12:42.809Z,100.00
2023-12-02T05:15:53.169Z,100.00
2023-12-02T05:18:57.132Z,100.00
2023-12-02T05:22:00.571Z,100.00
2023-12-02T05:25:04.177Z,100.00
2023-12-02T05:28:08.041Z,100.00
2023-12-02T05:31:11.914Z,100.00
2023-12-02T05:34:15.224Z,100.00
2023-12-02T05:37:21.999Z,100.00
2023-12-02T05:40:24.766Z,100.00
2023-12-02T05:43:27.964Z,100.00
2023-12-02T05:46:31.222Z,100.00
2023-12-02T05:49:36.439Z,100.00
2023-12-02T05:52:39.294Z,100.00
2023-12-02T05:55:44.347Z,100.00
2023-12-02T05:58:47.804Z,100.00
2023-12-02T06:01:51.951Z,100.00
2023-12-02T06:04:55.354Z,100.00
2023-12-02T06:07:58.944Z,100.00
2023-12-02T06:11:03.504Z,100.00
2023-12-02T06:14:07.524Z,100.00
2023-12-02T06:17:10.979Z,100.00
2023-12-02T06:20:15.533Z,100.00
2023-12-02T06:23:18.395Z,100.00
2023-12-02T06:26:21.870Z,100.00
2023-12-02T06:29:25.533Z,100.00
2023-12-02T06:32:28.978Z,100.00
2023-12-02T06:35:32.449Z,100.00
2023-12-02T06:38:35.419Z,100.00
2023-12-02T06:41:48.605Z,100.00
2023-12-02T06:44:59.219Z,100.00
2023-12-02T06:48:03.780Z,100.00
2023-12-02T06:51:12.875Z,100.00
2023-12-02T06:54:16.420Z,100.00
2023-12-02T06:57:22.717Z,100.00
2023-12-02T07:00:25.576Z,100.00
2023-12-02T07:03:29.811Z,100.00
2023-12-02T07:06:33.355Z,100.00
2023-12-02T07:09:38.204Z,100.00
2023-12-02T07:12:41.533Z,100.00
2023-12-02T07:15:44.933Z,100.00
2023-12-02T07:18:48.256Z,100.00
2023-12-02T07:21:56.114Z,100.00
2023-12-02T07:24:59.680Z,100.00
2023-12-02T07:28:03.357Z,100.00
2023-12-02T07:31:06.729Z,100.00
2023-12-02T07:34:12.848Z,100.00
2023-12-02T07:37:15.686Z,100.00
2023-12-02T07:40:19.341Z,100.00
2023-12-02T07:43:22.609Z,100.00
2023-12-02T07:46:28.345Z,100.00
2023-12-02T07:49:31.360Z,100.00
2023-12-02T07:52:35.010Z,100.00
2023-12-02T07:55:37.927Z,100.00
2023-12-02T07:58:41.333Z,100.00
2023-12-02T08:01:46.063Z,100.00
2023-12-02T08:05:44.023Z,100.00
2023-12-02T08:08:13.469Z,100.00
2023-12-02T08:11:17.377Z,100.00
2023-12-02T08:14:20.328Z,100.00
2023-12-02T08:17:23.382Z,100.00
2023-12-02T08:20:26.802Z,100.00
2023-12-02T08:23:30.551Z,100.00
2023-12-02T08:26:34.017Z,100.00
2023-12-02T08:29:40.551Z,100.00
2023-12-02T08:32:43.826Z,100.00
2023-12-02T08:35:47.044Z,100.00
2023-12-02T08:38:50.220Z,100.00
2023-12-02T08:41:56.058Z,100.00
2023-12-02T08:45:05.011Z,100.00
2023-12-02T08:48:08.352Z,100.00
2023-12-02T08:51:15.745Z,100.00
2023-12-02T08:54:18.671Z,100.00
2023-12-02T08:57:22.740Z,100.00
2023-12-02T09:00:25.894Z,100.00
2023-12-02T09:03:32.559Z,100.00
2023-12-02T09:06:46.224Z,100.00
2023-12-02T09:09:57.865Z,100.00
2023-12-02T09:13:30.804Z,100.00
2023-12-02T09:16:48.358Z,100.00
2023-12-02T09:19:55.864Z,100.00
2023-12-02T09:23:02.783Z,100.00
2023-12-02T09:26:41.580Z,100.00
2023-12-02T09:29:54.853Z,100.00
2023-12-02T09:32:58.377Z,100.00
2023-12-02T09:36:03.428Z,100.00
2023-12-02T09:39:11.032Z,100.00
2023-12-02T09:42:15.196Z,100.00
2023-12-02T09:45:27.589Z,100.00
2023-12-02T09:48:53.165Z,100.00
2023-12-02T09:52:26.822Z,100.00
2023-12-02T09:55:54.086Z,100.00
2023-12-02T09:59:21.651Z,100.00
2023-12-02T10:03:04.062Z,100.00
2023-12-02T10:06:16.305Z,100.00
2023-12-02T10:09:42.276Z,100.00
2023-12-02T10:12:54.160Z,100.00
2023-12-02T10:16:02.771Z,100.00
2023-12-02T10:19:07.009Z,100.00
2023-12-02T10:22:13.760Z,100.00
2023-12-02T10:25:44.308Z,100.00
2023-12-02T10:28:56.514Z,100.00
2023-12-02T10:32:09.134Z,100.00
2023-12-02T10:35:48.319Z,100.00
2023-12-02T10:39:13.423Z,100.00
2023-12-02T10:42:58.900Z,100.00
2023-12-02T10:46:02.303Z,100.00
2023-12-02T10:49:08.666Z,100.00
2023-12-02T10:55:22.018Z,100.00
2023-12-02T10:58:28.867Z,100.00
2023-12-02T11:01:57.656Z,100.00
2023-12-02T11:05:26.058Z,100.00
2023-12-02T11:08:52.887Z,100.00
2023-12-02T11:12:03.233Z,100.00
2023-12-02T11:15:11.467Z,100.00
2023-12-02T11:18:30.574Z,100.00
2023-12-02T11:21:45.661Z,100.00
2023-12-02T11:25:28.255Z,100.00
2023-12-02T11:28:38.846Z,100.00
2023-12-02T11:32:03.992Z,100.00
2023-12-02T11:35:16.610Z,100.00
2023-12-02T11:38:21.335Z,100.00
2023-12-02T11:41:45.962Z,100.00
2023-12-02T11:45:22.081Z,100.00
2023-12-02T11:48:38.837Z,100.00
2023-12-02T11:51:47.829Z,100.00
2023-12-02T11:55:34.666Z,100.00
2023-12-02T11:59:00.449Z,100.00
2023-12-02T12:02:29.027Z,100.00
2023-12-02T12:05:42.001Z,100.00
2023-12-02T12:09:04.109Z,100.00
2023-12-02T12:12:16.922Z,100.00
2023-12-02T12:15:20.466Z,100.00
2023-12-02T12:18:24.504Z,100.00
2023-12-02T12:21:28.222Z,100.00
2023-12-02T12:24:39.078Z,100.00
2023-12-02T12:27:46.357Z,100.00
2023-12-02T12:30:49.872Z,100.00
2023-12-02T12:33:56.877Z,100.00
2023-12-02T12:37:00.025Z,100.00
2023-12-02T12:40:05.205Z,100.00
2023-12-02T12:43:12.520Z,100.00
2023-12-02T12:46:18.592Z,100.00
2023-12-02T12:49:27.084Z,100.00
2023-12-02T12:52:31.957Z,100.00
2023-12-02T12:55:52.338Z,100.00
2023-12-02T12:59:02.971Z,100.00
2023-12-02T13:02:39.918Z,100.00
2023-12-02T13:05:44.645Z,100.00
2023-12-02T13:09:06.597Z,100.00
2023-12-02T13:12:18.278Z,100.00
2023-12-02T13:15:22.038Z,100.00
2023-12-02T13:18:30.214Z,100.00
2023-12-02T13:21:36.272Z,100.00
2023-12-02T13:24:50.456Z,100.00
2023-12-02T13:27:53.818Z,100.00
2023-12-02T13:31:02.747Z,100.00
2023-12-02T13:34:15.985Z,100.00
2023-12-02T13:37:25.572Z,100.00
2023-12-02T13:40:39.744Z,100.00
2023-12-02T13:43:49.523Z,100.00
2023-12-02T13:47:07.493Z,100.00
2023-12-02T13:50:14.720Z,100.00
2023-12-02T13:53:21.336Z,100.00
2023-12-02T13:56:31.989Z,100.00
2023-12-02T13:59:47.170Z,100.00
2023-12-02T14:03:13.151Z,100.00
2023-12-02T14:06:25.650Z,100.00
2023-12-02T14:09:29.452Z,100.00
2023-12-02T14:12:49.528Z,100.00
2023-12-02T14:16:13.268Z,100.00
2023-12-02T14:20:17.700Z,100.00
2023-12-02T14:23:41.974Z,100.00
2023-12-02T14:27:03.447Z,100.00
2023-12-02T14:30:44.624Z,100.00
2023-12-02T14:34:02.541Z,100.00
2023-12-02T14:37:38.793Z,100.00
2023-12-02T14:40:44.976Z,100.00
2023-12-02T14:44:26.273Z,100.00
2023-12-02T14:47:41.997Z,100.00
2023-12-02T14:50:49.479Z,100.00
2023-12-02T14:53:58.688Z,100.00
2023-12-02T14:57:23.174Z,100.00
2023-12-02T15:00:27.138Z,100.00
2023-12-02T15:03:31.702Z,100.00
2023-12-02T15:06:42.213Z,100.00
2023-12-02T15:09:46.188Z,100.00
2023-12-02T15:12:50.797Z,100.00
2023-12-02T15:15:54.842Z,100.00
2023-12-02T15:19:12.861Z,100.00
2023-12-02T15:22:21.134Z,100.00
2023-12-02T15:25:24.814Z,100.00
2023-12-02T15:28:27.803Z,100.00
2023-12-02T15:31:32.572Z,100.00
2023-12-02T15:34:36.578Z,100.00
2023-12-02T15:37:43.298Z,100.00
2023-12-02T15:40:47.050Z,100.00
2023-12-02T15:44:02.295Z,100.00
2023-12-02T15:47:05.794Z,99.66
2023-12-02T15:50:13.327Z,99.59
2023-12-02T15:53:25.715Z,99.87
2023-12-02T15:56:39.089Z,98.47
2023-12-02T15:59:49.931Z,97.32
2023-12-02T16:03:01.638Z,96.21
2023-12-02T16:06:12.294Z,96.14
2023-12-02T16:09:26.385Z,96.23
2023-12-02T16:12:31.893Z,96.32
2023-12-02T16:15:37.977Z,95.36
2023-12-02T16:18:44.876Z,96.45
2023-12-02T16:21:58.177Z,95.03
2023-12-02T16:25:22.419Z,94.77
2023-12-02T16:28:45.564Z,94.99
2023-12-02T16:31:52.765Z,94.64
2023-12-02T16:34:58.040Z,95.69
2023-12-02T16:38:01.185Z,95.15
2023-12-02T16:41:08.809Z,95.94
2023-12-02T16:44:11.786Z,97.01
2023-12-02T16:47:52.986Z,97.40
2023-12-02T16:50:57.617Z,99.01
2023-12-02T16:54:01.071Z,98.65
2023-12-02T16:57:05.285Z,100.00
2023-12-02T17:00:18.931Z,100.00
2023-12-02T17:03:29.838Z,100.00
2023-12-02T17:06:48.525Z,100.00
2023-12-02T17:09:54.754Z,100.00
2023-12-02T17:12:57.852Z,100.00
2023-12-02T17:16:02.158Z,100.00
2023-12-02T17:19:09.193Z,100.00
2023-12-02T17:22:16.923Z,100.00
2023-12-02T17:25:57.054Z,100.00
2023-12-02T17:29:00.540Z,100.00
2023-12-02T17:32:04.718Z,100.00
2023-12-02T17:35:14.420Z,100.00
2023-12-02T17:38:31.795Z,100.00
2023-12-02T17:41:41.759Z,100.00
2023-12-02T17:44:53.872Z,100.00
2023-12-02T17:48:10.190Z,100.00
2023-12-02T17:51:29.484Z,100.00
2023-12-02T17:54:47.473Z,100.00
2023-12-02T17:57:56.747Z,100.00
2023-12-02T18:01:00.002Z,100.00
2023-12-02T18:04:39.001Z,100.00
2023-12-02T18:07:51.393Z,100.00
2023-12-02T18:10:56.293Z,100.00
2023-12-02T18:13:59.746Z,100.00
2023-12-02T18:17:03.892Z,99.91
2023-12-02T18:20:07.897Z,98.87
2023-12-02T18:23:15.303Z,99.05
2023-12-02T18:26:18.129Z,98.42
2023-12-02T18:29:21.520Z,98.18
2023-12-02T18:32:25.521Z,98.49
2023-12-02T18:35:36.889Z,98.23
2023-12-02T18:38:47.028Z,98.31
2023-12-02T18:41:59.434Z,98.72
2023-12-02T18:45:10.833Z,98.16
2023-12-02T18:48:23.113Z,98.00
2023-12-02T18:51:35.630Z,98.00
2023-12-02T18:54:46.548Z,98.37
2023-12-02T18:57:57.613Z,98.82
2023-12-02T19:01:00.670Z,98.07
2023-12-02T19:04:09.048Z,98.44
2023-12-02T19:07:15.057Z,97.45
2023-12-02T19:10:18.154Z,97.58
2023-12-02T19:13:22.440Z,97.66
2023-12-02T19:16:25.554Z,96.97
2023-12-02T19:19:34.460Z,96.91
2023-12-02T19:22:42.082Z,96.28
2023-12-02T19:25:46.110Z,95.97
2023-12-02T19:28:54.085Z,95.38
2023-12-02T19:31:57.943Z,95.20
2023-12-02T19:35:04.393Z,95.53
2023-12-02T19:38:09.374Z,95.05
2023-12-02T19:41:12.753Z,95.11
2023-12-02T19:44:18.774Z,94.97
2023-12-02T19:47:22.058Z,94.80
2023-12-02T19:50:27.707Z,93.90
2023-12-02T19:53:31.061Z,94.00
2023-12-02T19:56:36.064Z,93.98
2023-12-02T19:59:39.373Z,93.75
2023-12-02T20:02:43.950Z,93.26
2023-12-02T20:05:47.174Z,93.13
2023-12-02T20:08:51.007Z,93.12
2023-12-02T20:11:54.015Z,92.70
2023-12-02T20:14:58.191Z,92.61
2023-12-02T20:18:01.939Z,91.78
2023-12-02T20:21:09.942Z,91.65
2023-12-02T20:24:22.312Z,91.85
2023-12-02T20:27:26.276Z,91.56
2023-12-02T20:30:32.377Z,91.73
2023-12-02T20:33:38.882Z,91.18
2023-12-02T20:36:42.715Z,90.99
2023-12-02T20:39:47.017Z,90.38
2023-12-02T20:42:50.235Z,90.74
2023-12-02T20:45:53.910Z,90.85
2023-12-02T20:48:58.453Z,90.63
2023-12-02T20:52:03.746Z,90.01
2023-12-02T20:55:07.578Z,89.53
2023-12-02T20:58:12.236Z,90.27
2023-12-02T21:01:15.059Z,89.42
2023-12-02T21:04:20.859Z,89.81
2023-12-02T21:07:24.538Z,88.89
2023-12-02T21:10:28.157Z,89.49
2023-12-02T21:13:31.509Z,89.03
2023-12-02T21:16:37.107Z,89.88
2023-12-02T21:19:40.458Z,89.29
2023-12-02T21:22:45.050Z,88.63
2023-12-02T21:25:48.314Z,89.09
2023-12-02T21:28:51.836Z,89.86
2023-12-02T21:31:55.024Z,89.19
2023-12-02T21:35:13.684Z,89.49
2023-12-02T21:38:47.645Z,89.15
2023-12-02T21:41:56.096Z,89.95
2023-12-02T21:44:59.324Z,90.01
2023-12-02T21:48:07.717Z,90.16
2023-12-02T21:51:30.585Z,90.56
2023-12-02T21:54:37.104Z,91.59
2023-12-02T21:57:40.982Z,91.60
2023-12-02T22:00:44.040Z,91.72
2023-12-02T22:03:47.594Z,91.16
2023-12-02T22:07:06.731Z,92.17
2023-12-02T22:10:29.471Z,93.01
2023-12-02T22:13:34.944Z,92.52
2023-12-02T22:16:38.326Z,91.73
2023-12-02T22:19:42.652Z,92.52
2023-12-02T22:22:46.341Z,93.51
2023-12-02T22:25:52.336Z,94.18
2023-12-02T22:28:57.587Z,94.30
2023-12-02T22:32:01.653Z,94.52
2023-12-02T22:35:06.411Z,94.87
2023-12-02T22:38:38.530Z,94.76
2023-12-02T22:41:44.489Z,95.03
2023-12-02T22:44:49.083Z,94.57
2023-12-02T22:47:52.753Z,95.26
2023-12-02T22:50:57.250Z,94.97
2023-12-02T22:54:01.194Z,95.00
2023-12-02T22:57:05.676Z,95.42
2023-12-02T23:00:21.078Z,94.76
2023-12-02T23:03:28.232Z,95.04
2023-12-02T23:06:32.197Z,94.46
2023-12-02T23:09:53.675Z,94.83
2023-12-02T23:12:58.266Z,94.23
2023-12-02T23:16:05.940Z,93.76
2023-12-02T23:19:24.193Z,93.26
2023-12-02T23:22:27.558Z,93.18
2023-12-02T23:25:30.793Z,93.05
2023-12-02T23:28:35.810Z,93.08
2023-12-02T23:31:41.700Z,91.94
2023-12-02T23:34:48.005Z,92.08
2023-12-02T23:37:55.885Z,92.03
2023-12-02T23:40:59.226Z,91.96
2023-12-02T23:44:09.085Z,91.09
2023-12-02T23:47:15.416Z,91.63
2023-12-02T23:50:22.716Z,91.28
2023-12-02T23:53:25.735Z,91.01
2023-12-02T23:56:30.163Z,90.44
2023-12-02T23:59:34.002Z,90.43
